createdAt,value
2022-10-11T00:00:33.172Z,18.25
2022-10-11T00:03:00.586Z,18.17
2022-10-11T00:05:27.915Z,16.90
2022-10-11T00:07:56.304Z,19.63
2022-10-11T00:10:23.807Z,19.45
2022-10-11T00:12:51.268Z,19.90
2022-10-11T00:15:20.135Z,19.77
2022-10-11T00:17:47.273Z,19.10
2022-10-11T00:20:14.901Z,19.08
2022-10-11T00:22:42.622Z,21.40
2022-10-11T00:25:12.601Z,19.80
2022-10-11T00:27:39.882Z,20.15
2022-10-11T00:30:08.288Z,19.65
2022-10-11T00:32:36.626Z,20.23
2022-10-11T00:35:09.658Z,20.17
2022-10-11T00:37:38.411Z,20.50
2022-10-11T00:40:14.816Z,21.20
2022-10-11T00:42:44.196Z,21.55
2022-10-11T00:46:00.772Z,19.02
2022-10-11T00:48:33.194Z,19.67
2022-10-11T00:51:02.904Z,19.55
2022-10-11T00:53:32.234Z,19.65
2022-10-11T00:56:05.159Z,19.58
2022-10-11T00:58:35.060Z,18.60
2022-10-11T01:01:02.552Z,19.00
2022-10-11T01:03:33.414Z,18.65
2022-10-11T01:06:00.426Z,18.30
2022-10-11T01:08:27.577Z,17.80
2022-10-11T01:10:54.987Z,17.67
2022-10-11T01:13:35.690Z,17.05
2022-10-11T01:16:13.806Z,16.70
2022-10-11T01:18:47.784Z,17.05
2022-10-11T01:21:26.407Z,16.88
2022-10-11T01:24:13.146Z,15.63
2022-10-11T01:27:01.594Z,15.40
2022-10-11T01:29:41.308Z,15.68
2022-10-11T01:32:13.688Z,16.58
2022-10-11T01:34:47.830Z,16.30
2022-10-11T01:37:24.223Z,16.50
2022-10-11T01:39:56.386Z,16.80
2022-10-11T01:42:24.087Z,18.83
2022-10-11T01:44:51.875Z,19.40
2022-10-11T01:47:21.706Z,18.45
2022-10-11T01:49:53.931Z,17.38
2022-10-11T01:52:20.713Z,18.67
2022-10-11T01:55:10.295Z,17.83
2022-10-11T01:58:07.002Z,17.83
2022-10-11T02:00:45.175Z,18.05
2022-10-11T02:03:21.645Z,18.92
2022-10-11T02:05:55.311Z,17.35
2022-10-11T02:08:27.751Z,18.40
2022-10-11T02:11:00.990Z,19.05
2022-10-11T02:13:31.975Z,17.52
2022-10-11T02:16:02.399Z,17.75
2022-10-11T02:18:36.334Z,17.85
2022-10-11T02:21:07.406Z,16.13
2022-10-11T02:23:39.179Z,16.13
2022-10-11T02:26:08.971Z,16.48
2022-10-11T02:28:38.026Z,14.57
2022-10-11T02:31:06.868Z,16.63
2022-10-11T02:33:40.314Z,15.93
2022-10-11T02:36:14.172Z,17.60
2022-10-11T02:38:47.369Z,16.45
2022-10-11T02:41:21.468Z,17.25
2022-10-11T02:43:55.234Z,16.88
2022-10-11T02:46:22.336Z,16.88
2022-10-11T02:48:51.177Z,17.33
2022-10-11T02:51:18.407Z,17.52
2022-10-11T02:53:44.982Z,17.13
2022-10-11T02:56:11.568Z,18.20
2022-10-11T02:58:38.172Z,15.77
2022-10-11T03:01:04.899Z,16.65
2022-10-11T03:03:31.455Z,16.25
2022-10-11T03:06:00.149Z,15.48
2022-10-11T03:08:26.843Z,15.83
2022-10-11T03:10:53.432Z,15.85
2022-10-11T03:13:20.122Z,17.00
2022-10-11T03:15:49.421Z,16.30
2022-10-11T03:18:19.354Z,17.45
2022-10-11T03:20:46.159Z,16.67
2022-10-11T03:23:14.236Z,15.45
2022-10-11T03:25:40.820Z,16.42
2022-10-11T03:28:07.493Z,15.23
2022-10-11T03:30:34.105Z,15.55
2022-10-11T03:33:00.686Z,14.60
2022-10-11T03:35:27.339Z,14.60
2022-10-11T03:37:53.916Z,15.15
2022-10-11T03:40:21.830Z,15.57
2022-10-11T03:42:48.614Z,14.82
2022-10-11T03:45:15.221Z,15.57
2022-10-11T03:47:41.789Z,14.93
2022-10-11T03:50:09.766Z,14.18
2022-10-11T03:52:36.364Z,14.73
2022-10-11T03:55:03.234Z,14.68
2022-10-11T03:57:31.215Z,15.15
2022-10-11T03:59:57.764Z,14.77
2022-10-11T04:02:24.613Z,14.57
2022-10-11T04:04:51.246Z,13.40
2022-10-11T04:07:17.799Z,13.13
2022-10-11T04:09:44.386Z,13.10
2022-10-11T04:12:11.007Z,14.43
2022-10-11T04:14:38.978Z,13.15
2022-10-11T04:17:05.510Z,13.60
2022-10-11T04:19:32.113Z,13.10
2022-10-11T04:21:58.650Z,13.68
2022-10-11T04:24:25.208Z,13.98
2022-10-11T04:26:51.875Z,13.98
2022-10-11T04:29:18.447Z,14.57
2022-10-11T04:31:46.375Z,14.13
2022-10-11T04:34:12.951Z,13.23
2022-10-11T04:36:39.499Z,14.40
2022-10-11T04:39:06.435Z,14.18
2022-10-11T04:41:33.307Z,14.93
2022-10-11T04:44:00.315Z,14.85
2022-10-11T04:46:27.072Z,14.90
2022-10-11T04:48:55.732Z,14.77
2022-10-11T04:51:22.630Z,14.53
2022-10-11T04:53:49.273Z,14.25
2022-10-11T04:56:16.380Z,13.45
2022-10-11T04:58:42.929Z,13.20
2022-10-11T05:01:10.435Z,13.60
2022-10-11T05:03:37.616Z,13.30
2022-10-11T05:06:06.351Z,12.63
2022-10-11T05:08:33.352Z,13.02
2022-10-11T05:11:01.898Z,12.88
2022-10-11T05:13:30.142Z,12.30
2022-10-11T05:15:57.103Z,11.63
2022-10-11T05:18:24.343Z,13.05
2022-10-11T05:20:58.903Z,13.32
2022-10-11T05:23:27.091Z,13.85
2022-10-11T05:25:53.672Z,14.65
2022-10-11T05:28:20.282Z,12.95
2022-10-11T05:30:46.926Z,13.02
2022-10-11T05:33:13.506Z,12.98
2022-10-11T05:35:40.217Z,12.40
2022-10-11T05:38:06.898Z,13.57
2022-10-11T05:40:34.846Z,14.02
2022-10-11T05:43:01.395Z,13.15
2022-10-11T05:45:28.031Z,12.75
2022-10-11T05:47:54.607Z,13.88
2022-10-11T05:50:24.329Z,13.23
2022-10-11T05:52:51.545Z,14.18
2022-10-11T05:55:18.106Z,12.52
2022-10-11T05:57:46.009Z,13.05
2022-10-11T06:00:13.277Z,12.70
2022-10-11T06:02:40.183Z,13.07
2022-10-11T06:05:07.210Z,12.75
2022-10-11T06:07:35.696Z,13.55
2022-10-11T06:10:02.400Z,11.95
2022-10-11T06:12:29.020Z,12.05
2022-10-11T06:14:57.005Z,12.05
2022-10-11T06:17:28.337Z,13.15
2022-10-11T06:19:55.685Z,11.48
2022-10-11T06:22:22.292Z,12.27
2022-10-11T06:24:49.024Z,13.23
2022-10-11T06:27:15.695Z,12.80
2022-10-11T06:29:42.348Z,13.05
2022-10-11T06:32:10.341Z,13.40
2022-10-11T06:34:36.902Z,12.02
2022-10-11T06:37:03.502Z,12.13
2022-10-11T06:39:30.174Z,12.93
2022-10-11T06:41:56.770Z,12.38
2022-10-11T06:44:23.514Z,11.88
2022-10-11T06:46:50.107Z,11.13
2022-10-11T06:49:23.064Z,10.60
2022-10-11T06:51:50.565Z,11.75
2022-10-11T06:54:17.221Z,12.35
2022-10-11T06:56:43.884Z,12.40
2022-10-11T06:59:10.531Z,11.10
2022-10-11T07:01:37.196Z,13.07
2022-10-11T07:04:04.120Z,12.00
2022-10-11T07:06:37.307Z,11.82
2022-10-11T07:09:04.827Z,11.85
2022-10-11T07:11:31.625Z,12.35
2022-10-11T07:14:01.451Z,13.20
2022-10-11T07:16:28.560Z,12.68
2022-10-11T07:19:00.575Z,12.50
2022-10-11T07:21:28.578Z,13.18
2022-10-11T07:23:56.946Z,11.70
2022-10-11T07:26:23.608Z,12.48
2022-10-11T07:28:50.321Z,13.07
2022-10-11T07:31:19.878Z,11.82
2022-10-11T07:36:13.717Z,12.90
2022-10-11T07:38:41.922Z,12.70
2022-10-11T07:41:12.741Z,11.88
2022-10-11T07:43:39.800Z,13.27
2022-10-11T07:46:07.826Z,13.95
2022-10-11T07:48:36.456Z,13.38
2022-10-11T07:51:05.286Z,13.68
2022-10-11T07:53:31.913Z,14.25
2022-10-11T07:56:00.264Z,15.18
2022-10-11T07:58:28.523Z,14.38
2022-10-11T08:00:55.466Z,14.50
2022-10-11T08:03:22.030Z,15.38
2022-10-11T08:05:48.716Z,15.57
2022-10-11T08:08:15.377Z,15.55
2022-10-11T08:10:41.993Z,16.50
2022-10-11T08:13:08.617Z,18.25
2022-10-11T08:15:36.573Z,22.80
2022-10-11T08:18:03.264Z,26.27
2022-10-11T08:20:29.927Z,28.30
2022-10-11T08:22:57.051Z,25.60
2022-10-11T08:25:23.709Z,26.42
2022-10-11T08:27:50.412Z,24.95
2022-10-11T08:30:17.290Z,26.02
2022-10-11T08:32:45.294Z,25.23
2022-10-11T08:35:11.898Z,25.92
2022-10-11T08:37:38.577Z,29.98
2022-10-11T08:40:06.594Z,27.55
2022-10-11T08:42:37.064Z,29.08
2022-10-11T08:45:11.544Z,30.25
2022-10-11T08:47:42.687Z,29.48
2022-10-11T08:50:19.584Z,27.60
2022-10-11T08:52:50.811Z,25.27
2022-10-11T08:55:21.573Z,23.77
2022-10-11T08:57:52.478Z,24.50
2022-10-11T09:00:20.686Z,23.83
2022-10-11T09:03:07.983Z,24.75
2022-10-11T09:05:59.565Z,23.88
2022-10-11T09:08:33.188Z,23.85
2022-10-11T09:11:10.995Z,23.58
2022-10-11T09:13:58.820Z,23.88
2022-10-11T09:16:34.832Z,24.83
2022-10-11T09:19:49.088Z,25.15
2022-10-11T09:22:30.345Z,23.08
2022-10-11T09:25:12.003Z,22.55
2022-10-11T09:28:01.748Z,21.20
2022-10-11T09:30:29.352Z,22.98
2022-10-11T09:33:08.749Z,22.73
2022-10-11T09:38:15.419Z,20.23
2022-10-11T09:40:52.970Z,19.13
2022-10-11T09:43:19.736Z,18.67
2022-10-11T09:45:49.480Z,17.65
2022-10-11T09:48:20.513Z,20.02
2022-10-11T09:50:48.681Z,18.85
2022-10-11T09:53:16.740Z,18.50
2022-10-11T09:55:49.930Z,18.98
2022-10-11T09:58:28.480Z,19.40
2022-10-11T10:01:06.604Z,18.87
2022-10-11T10:06:08.696Z,17.13
2022-10-11T10:08:37.532Z,20.25
2022-10-11T10:11:06.127Z,21.03
2022-10-11T10:13:44.872Z,21.23
2022-10-11T10:16:23.923Z,21.10
2022-10-11T10:18:53.490Z,20.58
2022-10-11T10:21:27.332Z,19.65
2022-10-11T10:23:56.458Z,20.27
2022-10-11T10:26:25.287Z,19.88
2022-10-11T10:29:14.283Z,21.02
2022-10-11T10:34:45.610Z,19.80
2022-10-11T10:37:22.895Z,20.58
2022-10-11T10:39:55.846Z,19.52
2022-10-11T10:42:22.544Z,19.40
2022-10-11T10:44:53.665Z,19.73
2022-10-11T10:47:38.167Z,21.33
2022-10-11T10:50:08.763Z,21.38
2022-10-11T10:52:47.704Z,22.25
2022-10-11T10:55:23.295Z,19.52
2022-10-11T10:58:04.100Z,21.02
2022-10-11T11:00:38.790Z,19.73
2022-10-11T11:03:11.085Z,21.48
2022-10-11T11:05:45.663Z,20.88
2022-10-11T11:08:16.425Z,18.73
2022-10-11T11:10:53.338Z,20.98
2022-10-11T11:13:28.835Z,22.65
2022-10-11T11:16:06.866Z,22.55
2022-10-11T11:18:40.954Z,20.75
2022-10-11T11:21:27.036Z,20.60
2022-10-11T11:24:02.942Z,21.77
2022-10-11T11:26:39.724Z,22.38
2022-10-11T11:29:19.600Z,22.73
2022-10-11T11:32:05.149Z,20.77
2022-10-11T11:34:37.024Z,20.35
2022-10-11T11:37:06.421Z,22.20
2022-10-11T11:42:12.125Z,18.08
2022-10-11T11:44:43.407Z,21.52
2022-10-11T11:47:14.501Z,25.13
2022-10-11T11:49:45.480Z,23.58
2022-10-11T11:52:20.242Z,22.40
2022-10-11T11:54:56.572Z,22.63
2022-10-11T11:57:39.654Z,22.80
2022-10-11T12:00:13.411Z,22.70
2022-10-11T12:02:50.759Z,22.27
2022-10-11T12:05:22.399Z,23.52
2022-10-11T12:07:54.288Z,22.48
2022-10-11T12:10:36.106Z,19.88
2022-10-11T12:13:32.412Z,22.08
2022-10-11T12:16:08.081Z,21.65
2022-10-11T12:18:47.102Z,19.15
2022-10-11T12:21:22.212Z,16.98
2022-10-11T12:23:50.578Z,15.50
2022-10-11T12:26:42.480Z,19.13
2022-10-11T12:29:44.156Z,16.73
2022-10-11T12:32:49.278Z,19.38
2022-10-11T12:36:05.542Z,19.88
2022-10-11T12:41:38.659Z,21.10
2022-10-11T12:44:20.484Z,20.48
2022-10-11T12:47:26.438Z,20.50
2022-10-11T12:50:07.209Z,20.95
2022-10-11T12:52:48.785Z,19.45
2022-10-11T12:55:33.290Z,20.05
2022-10-11T12:58:17.613Z,20.65
2022-10-11T13:01:09.441Z,19.30
2022-10-11T13:03:43.787Z,18.00
2022-10-11T13:06:15.988Z,16.27
2022-10-11T13:08:48.002Z,18.27
2022-10-11T13:11:21.522Z,18.83
2022-10-11T13:13:53.533Z,18.08
2022-10-11T13:16:23.600Z,19.67
2022-10-11T13:18:56.198Z,18.85
2022-10-11T13:21:31.425Z,17.02
2022-10-11T13:24:10.039Z,16.30
2022-10-11T13:26:40.029Z,18.05
2022-10-11T13:29:16.479Z,18.10
2022-10-11T13:31:46.995Z,16.77
2022-10-11T13:34:19.732Z,19.02
2022-10-11T13:36:56.514Z,18.52
2022-10-11T13:39:31.084Z,15.85
2022-10-11T13:42:01.546Z,14.65
2022-10-11T13:44:32.778Z,17.25
2022-10-11T13:47:04.678Z,14.80
2022-10-11T13:49:33.996Z,17.55
2022-10-11T13:54:57.390Z,15.85
2022-10-11T13:57:34.481Z,17.25
2022-10-11T14:00:02.778Z,15.35
2022-10-11T14:02:33.171Z,17.77
2022-10-11T14:05:00.484Z,15.65
2022-10-11T14:07:39.048Z,16.77
2022-10-11T14:10:21.020Z,17.33
2022-10-11T14:13:02.951Z,15.65
2022-10-11T14:15:35.189Z,17.42
2022-10-11T14:18:26.515Z,16.48
2022-10-11T14:21:17.265Z,18.00
2022-10-11T14:23:45.504Z,16.50
2022-10-11T14:26:18.487Z,15.88
2022-10-11T14:29:02.690Z,15.65
2022-10-11T14:31:30.316Z,16.13
2022-10-11T14:33:59.365Z,16.73
2022-10-11T14:36:27.475Z,16.80
2022-10-11T14:38:58.150Z,13.77
2022-10-11T14:41:28.781Z,14.73
2022-10-11T14:43:58.006Z,14.52
2022-10-11T14:48:56.338Z,8.00
2022-10-11T14:51:30.181Z,7.88
2022-10-11T14:54:04.132Z,7.05
2022-10-11T14:56:39.143Z,6.07
2022-10-11T14:59:14.554Z,6.78
2022-10-11T15:02:04.320Z,6.70
2022-10-11T15:04:33.012Z,6.50
2022-10-11T15:07:00.837Z,6.43
2022-10-11T15:09:34.590Z,6.47
2022-10-11T15:12:08.155Z,6.53
2022-10-11T15:14:40.569Z,5.72
2022-10-11T15:17:12.269Z,6.63
2022-10-11T15:19:44.206Z,5.90
2022-10-11T15:22:12.038Z,5.78
2022-10-11T15:24:47.053Z,5.72
2022-10-11T15:27:17.983Z,5.45
2022-10-11T15:29:47.557Z,6.32
2022-10-11T15:32:15.335Z,5.88
2022-10-11T15:34:42.048Z,6.65
2022-10-11T15:37:08.644Z,5.70
2022-10-11T15:39:35.241Z,6.10
2022-10-11T15:42:02.122Z,5.50
2022-10-11T15:44:28.861Z,5.70
2022-10-11T15:46:56.977Z,6.80
2022-10-11T15:49:24.443Z,5.55
2022-10-11T15:51:51.220Z,5.95
2022-10-11T15:54:18.100Z,5.65
2022-10-11T15:56:44.916Z,6.10
2022-10-11T15:59:11.770Z,5.22
2022-10-11T16:01:38.580Z,6.07
2022-10-11T16:04:06.677Z,5.90
2022-10-11T16:06:33.374Z,6.05
2022-10-11T16:09:00.030Z,6.32
2022-10-11T16:11:26.583Z,5.20
2022-10-11T16:13:53.217Z,7.22
2022-10-11T16:16:19.876Z,6.97
2022-10-11T16:18:49.828Z,6.68
2022-10-11T16:21:21.110Z,6.82
2022-10-11T16:23:49.566Z,6.20
2022-10-11T16:26:16.578Z,6.90
2022-10-11T16:28:46.731Z,6.65
2022-10-11T16:31:15.343Z,6.55
2022-10-11T16:33:42.420Z,7.22
2022-10-11T16:36:10.280Z,6.80
2022-10-11T16:38:38.348Z,7.03
2022-10-11T16:41:06.123Z,7.40
2022-10-11T16:43:36.202Z,7.22
2022-10-11T16:46:03.248Z,7.45
2022-10-11T16:48:30.285Z,7.65
2022-10-11T16:51:05.254Z,7.10
2022-10-11T16:53:33.461Z,7.50
2022-10-11T16:56:05.319Z,7.32
2022-10-11T16:58:32.349Z,7.65
2022-10-11T17:00:59.294Z,8.02
2022-10-11T17:03:26.096Z,7.07
2022-10-11T17:05:52.840Z,7.38
2022-10-11T17:08:19.636Z,7.85
2022-10-11T17:10:52.131Z,6.95
2022-10-11T17:13:20.298Z,6.95
2022-10-11T17:15:47.628Z,8.35
2022-10-11T17:18:14.446Z,7.45
2022-10-11T17:20:41.100Z,7.53
2022-10-11T17:23:07.745Z,7.30
2022-10-11T17:25:41.515Z,6.95
2022-10-11T17:28:08.252Z,8.05
2022-10-11T17:30:36.638Z,8.45
2022-10-11T17:33:03.798Z,7.82
2022-10-11T17:35:31.846Z,8.88
2022-10-11T17:38:02.308Z,9.20
2022-10-11T17:40:31.902Z,11.15
2022-10-11T17:42:58.571Z,12.55
2022-10-11T17:45:25.249Z,13.32
2022-10-11T17:47:53.303Z,11.95
2022-10-11T17:50:19.991Z,14.18
2022-10-11T17:52:46.634Z,13.45
2022-10-11T17:55:13.274Z,11.93
2022-10-11T17:57:39.845Z,10.48
2022-10-11T18:00:07.778Z,11.38
2022-10-11T18:02:37.610Z,11.77
2022-10-11T18:05:07.262Z,13.13
2022-10-11T18:07:34.721Z,13.55
2022-10-11T18:10:01.454Z,13.25
2022-10-11T18:12:28.159Z,13.48
2022-10-11T18:14:55.193Z,14.70
2022-10-11T18:17:21.852Z,13.05
2022-10-11T18:19:48.443Z,12.50
2022-10-11T18:22:16.696Z,13.82
2022-10-11T18:24:43.798Z,12.48
2022-10-11T18:27:10.395Z,12.00
2022-10-11T18:29:37.072Z,13.95
2022-10-11T18:32:03.765Z,13.80
2022-10-11T18:34:30.428Z,12.25
2022-10-11T18:36:57.054Z,12.85
2022-10-11T18:39:25.086Z,12.88
2022-10-11T18:41:51.667Z,14.95
2022-10-11T18:44:18.242Z,13.20
2022-10-11T18:46:45.043Z,15.93
2022-10-11T18:49:12.484Z,16.20
2022-10-11T18:51:41.013Z,17.05
2022-10-11T18:54:10.279Z,19.50
2022-10-11T18:56:38.352Z,18.20
2022-10-11T18:59:05.629Z,13.95
2022-10-11T19:01:34.078Z,13.25
2022-10-11T19:04:01.764Z,13.63
2022-10-11T19:06:30.433Z,15.18
2022-10-11T19:09:00.673Z,16.33
2022-10-11T19:11:27.795Z,15.82
2022-10-11T19:13:57.332Z,15.05
2022-10-11T19:16:24.966Z,15.05
2022-10-11T19:18:52.260Z,16.05
2022-10-11T19:21:19.270Z,18.55
2022-10-11T19:23:47.397Z,15.68
2022-10-11T19:26:16.366Z,13.35
2022-10-11T19:28:43.671Z,14.93
2022-10-11T19:31:14.524Z,16.85
2022-10-11T19:33:41.087Z,20.05
2022-10-11T19:36:08.274Z,23.08
2022-10-11T19:38:35.816Z,22.85
2022-10-11T19:41:03.681Z,22.73
2022-10-11T19:43:30.377Z,23.10
2022-10-11T19:45:59.952Z,24.58
2022-10-11T19:48:28.051Z,24.35
2022-10-11T19:51:01.679Z,26.13
2022-10-11T19:53:28.230Z,26.30
2022-10-11T19:55:54.774Z,27.17
2022-10-11T19:58:21.373Z,29.17
2022-10-11T20:00:47.953Z,32.70
2022-10-11T20:03:14.544Z,33.55
2022-10-11T20:05:42.469Z,32.80
2022-10-11T20:08:09.011Z,33.97
2022-10-11T20:10:35.572Z,32.15
2022-10-11T20:13:02.157Z,32.30
2022-10-11T20:15:28.694Z,30.13
2022-10-11T20:17:55.246Z,29.52
2022-10-11T20:20:21.814Z,31.73
2022-10-11T20:22:49.788Z,30.90
2022-10-11T20:25:16.535Z,28.90
2022-10-11T20:27:43.110Z,29.60
2022-10-11T20:30:11.403Z,27.02
2022-10-11T20:32:37.994Z,25.20
2022-10-11T20:35:05.389Z,23.02
2022-10-11T20:37:34.811Z,20.73
2022-10-11T20:40:02.941Z,20.00
2022-10-11T20:42:29.997Z,18.73
2022-10-11T20:44:56.704Z,19.00
2022-10-11T20:47:23.300Z,18.02
2022-10-11T20:49:49.979Z,17.83
2022-10-11T20:52:16.610Z,17.42
2022-10-11T20:54:43.170Z,16.23
2022-10-11T20:57:11.261Z,17.50
2022-10-11T20:59:37.890Z,16.67
2022-10-11T21:02:04.511Z,16.95
2022-10-11T21:04:31.187Z,16.25
2022-10-11T21:06:57.812Z,16.60
2022-10-11T21:09:24.440Z,16.58
2022-10-11T21:11:51.028Z,16.17
2022-10-11T21:14:19.009Z,17.45
2022-10-11T21:16:45.601Z,17.75
2022-10-11T21:19:14.114Z,16.25
2022-10-11T21:21:40.767Z,16.88
2022-10-11T21:24:07.414Z,16.38
2022-10-11T21:26:34.132Z,15.32
2022-10-11T21:29:01.916Z,16.05
2022-10-11T21:31:34.092Z,16.70
2022-10-11T21:34:01.767Z,16.05
2022-10-11T21:36:28.385Z,16.08
2022-10-11T21:38:55.138Z,15.27
2022-10-11T21:41:23.520Z,15.02
2022-10-11T21:43:50.080Z,15.85
2022-10-11T21:46:18.575Z,15.70
2022-10-11T21:48:47.182Z,16.25
2022-10-11T21:51:15.708Z,15.10
2022-10-11T21:53:42.568Z,14.90
2022-10-11T21:56:09.213Z,15.35
2022-10-11T21:58:35.826Z,16.77
2022-10-11T22:01:02.505Z,15.52
2022-10-11T22:03:29.193Z,15.90
2022-10-11T22:05:57.194Z,16.30
2022-10-11T22:08:23.857Z,15.70
2022-10-11T22:10:53.719Z,16.92
2022-10-11T22:13:20.380Z,15.95
2022-10-11T22:15:47.041Z,16.10
2022-10-11T22:18:13.622Z,15.75
2022-10-11T22:20:40.370Z,16.02
2022-10-11T22:23:08.306Z,16.35
2022-10-11T22:25:35.315Z,16.45
2022-10-11T22:28:01.884Z,15.43
2022-10-11T22:30:28.591Z,15.63
2022-10-11T22:32:55.194Z,14.77
2022-10-11T22:35:21.815Z,16.20
2022-10-11T22:37:48.354Z,15.15
2022-10-11T22:40:17.056Z,16.25
2022-10-11T22:42:43.840Z,15.00
2022-10-11T22:45:11.028Z,15.40
2022-10-11T22:47:38.116Z,13.75
2022-10-11T22:50:05.622Z,14.93
2022-10-11T22:52:32.182Z,14.75
2022-10-11T22:54:58.782Z,14.82
2022-10-11T22:57:26.687Z,14.65
2022-10-11T22:59:53.256Z,15.55
2022-10-11T23:02:19.820Z,15.25
2022-10-11T23:04:46.374Z,14.45
2022-10-11T23:07:12.933Z,14.32
2022-10-11T23:09:39.509Z,13.65
2022-10-11T23:12:06.756Z,13.13
2022-10-11T23:14:34.719Z,14.48
2022-10-11T23:17:01.301Z,13.35
2022-10-11T23:19:27.870Z,13.40
2022-10-11T23:21:54.484Z,12.52
2022-10-11T23:24:21.115Z,12.60
2022-10-11T23:26:47.664Z,12.90
2022-10-11T23:29:14.240Z,11.93
2022-10-11T23:31:42.168Z,11.07
2022-10-11T23:34:08.756Z,11.13
2022-10-11T23:36:35.297Z,10.00
2022-10-11T23:39:01.872Z,10.52
2022-10-11T23:41:29.538Z,11.85
2022-10-11T23:43:57.012Z,10.80
2022-10-11T23:46:24.128Z,9.50
2022-10-11T23:48:52.039Z,10.07
2022-10-11T23:51:18.652Z,9.70
2022-10-11T23:53:45.284Z,9.73
2022-10-11T23:56:12.224Z,10.15
2022-10-11T23:58:38.809Z,9.55
